Vandalia, Illinois
Current Conditions -  °F | °C
As of 12:35 AM on Monday 24 Nov 2014 (Local Time) from KENL Reporting Station
Overcast Overcast  
Wind Chill: 55°   Ceiling: 1000
Heat Index: 55°   Visibility: 10mi
Dew Point: 53°   Wind: 8mph
Humidity: 91%   Direction: 200°SSW
Pressure: 29.21"   Gusts: NA
Location:  38.96°N, 89.1°W
Report Text: KENL 240635Z AUTO 20007KT 10SM BKN010 OVC017 13/12 A2921 RMK AO2 T01300115
Loading
Personal Weather Stations






























Interactive Weather Map New forecast layout! Learn more

10-Day Weather Forecast

Advertisements
Track Severe Weather on mobile